LHBC 201145Z 01003KT 9999 FEW046TCU 30/19 Q1021        

LHBP 201230Z VRB02KT CAVOK 29/18 Q1021 NOSIG        

LHDC 201215Z 02004KT CAVOK 30/15 Q1020 NOSIG        

LHKE 201215Z 05004KT CAVOK 30/19 Q1020 NOSIG RMK BLU        

LHPA 201215Z 30002KT 9999 FEW047TCU 29/17 Q1021 NOSIG RMK BLU        

LHPP 201215Z 21006KT 9999 SCT043TCU 28/17 Q1021        

LHPR 201215Z VRB03KT 9999 SCT046 29/17 Q1021 RMK BLU        

LHSM 201215Z 13003KT 9999 FEW037TCU 29/19 Q1021 NOSIG        

LHSN 201215Z 12002KT 9999 FEW055TCU SCT060 31/15 Q1020 NOSIG RMK BLU        

LHUD 201215Z 06002KT 9999 BKN043 29/20 Q1020